sensor_id;sensor_type;location;lat;lon;timestamp;pressure;altitude;pressure_sealevel;temperature;humidity
51807;BME280;37865;51.304;9.536;2023-07-08T00:00:50;100226.75;;;15.69;76.35
51807;BME280;37865;51.304;9.536;2023-07-08T00:03:16;100238.84;;;15.58;76.71
51807;BME280;37865;51.304;9.536;2023-07-08T00:05:42;100235.56;;;15.51;77.62
51807;BME280;37865;51.304;9.536;2023-07-08T00:08:12;100240.78;;;15.43;78.44
51807;BME280;37865;51.304;9.536;2023-07-08T00:10:38;100237.72;;;15.34;79.07
51807;BME280;37865;51.304;9.536;2023-07-08T00:13:03;100244.59;;;15.26;79.70
51807;BME280;37865;51.304;9.536;2023-07-08T00:15:31;100241.28;;;15.19;80.45
51807;BME280;37865;51.304;9.536;2023-07-08T00:17:58;100226.44;;;15.10;80.68
51807;BME280;37865;51.304;9.536;2023-07-08T00:20:31;100225.63;;;15.05;81.23
51807;BME280;37865;51.304;9.536;2023-07-08T00:22:57;100223.44;;;15.02;80.96
51807;BME280;37865;51.304;9.536;2023-07-08T00:25:25;100230.28;;;14.94;81.64
51807;BME280;37865;51.304;9.536;2023-07-08T00:27:51;100233.28;;;14.88;82.03
51807;BME280;37865;51.304;9.536;2023-07-08T00:30:25;100223.09;;;14.78;82.75
51807;BME280;37865;51.304;9.536;2023-07-08T00:32:51;100226.09;;;14.72;82.66
51807;BME280;37865;51.304;9.536;2023-07-08T00:35:42;100218.69;;;14.62;83.23
51807;BME280;37865;51.304;9.536;2023-07-08T00:43:35;100220.25;;;14.43;85.20
51807;BME280;37865;51.304;9.536;2023-07-08T00:46:13;100228.47;;;14.38;86.01
51807;BME280;37865;51.304;9.536;2023-07-08T00:48:45;100227.91;;;14.31;86.46
51807;BME280;37865;51.304;9.536;2023-07-08T00:51:11;100228.13;;;14.24;86.75
51807;BME280;37865;51.304;9.536;2023-07-08T00:53:37;100219.84;;;14.19;87.58
51807;BME280;37865;51.304;9.536;2023-07-08T00:56:12;100234.34;;;14.15;87.96
51807;BME280;37865;51.304;9.536;2023-07-08T00:58:44;100220.91;;;14.08;88.00
51807;BME280;37865;51.304;9.536;2023-07-08T01:01:11;100224.44;;;14.04;88.55
51807;BME280;37865;51.304;9.536;2023-07-08T01:03:58;100224.97;;;14.01;89.34
51807;BME280;37865;51.304;9.536;2023-07-08T01:06:27;100227.13;;;13.94;89.71
51807;BME280;37865;51.304;9.536;2023-07-08T01:08:57;100227.66;;;13.91;89.77
51807;BME280;37865;51.304;9.536;2023-07-08T01:11:25;100230.63;;;13.84;90.20
51807;BME280;37865;51.304;9.536;2023-07-08T01:13:51;100234.69;;;13.77;90.71
51807;BME280;37865;51.304;9.536;2023-07-08T01:16:17;100228.38;;;13.71;91.14
51807;BME280;37865;51.304;9.536;2023-07-08T01:18:42;100229.72;;;13.68;91.89
51807;BME280;37865;51.304;9.536;2023-07-08T01:21:29;100225.31;;;13.67;92.50
51807;BME280;37865;51.304;9.536;2023-07-08T01:23:54;100219.81;;;13.62;92.47
51807;BME280;37865;51.304;9.536;2023-07-08T01:26:23;100231.00;;;13.61;93.16
51807;BME280;37865;51.304;9.536;2023-07-08T01:28:50;100231.56;;;13.63;93.05
51807;BME280;37865;51.304;9.536;2023-07-08T01:31:16;100221.16;;;13.60;92.96
51807;BME280;37865;51.304;9.536;2023-07-08T01:33:41;100218.13;;;13.56;93.30
51807;BME280;37865;51.304;9.536;2023-07-08T01:36:10;100216.47;;;13.55;93.40
51807;BME280;37865;51.304;9.536;2023-07-08T01:38:36;100215.34;;;13.51;93.65
51807;BME280;37865;51.304;9.536;2023-07-08T01:41:02;100216.69;;;13.49;93.74
51807;BME280;37865;51.304;9.536;2023-07-08T01:43:27;100213.94;;;13.44;94.15
51807;BME280;37865;51.304;9.536;2023-07-08T01:45:53;100208.97;;;13.41;94.58
51807;BME280;37865;51.304;9.536;2023-07-08T01:48:22;100212.25;;;13.38;94.83
51807;BME280;37865;51.304;9.536;2023-07-08T01:50:52;100205.09;;;13.37;95.11
51807;BME280;37865;51.304;9.536;2023-07-08T01:53:35;100207.53;;;13.33;95.19
51807;BME280;37865;51.304;9.536;2023-07-08T01:56:01;100202.00;;;13.28;95.51
51807;BME280;37865;51.304;9.536;2023-07-08T01:58:26;100202.78;;;13.24;96.06
51807;BME280;37865;51.304;9.536;2023-07-08T02:00:53;100194.28;;;13.20;96.35
51807;BME280;37865;51.304;9.536;2023-07-08T02:03:19;100194.00;;;13.17;96.84
51807;BME280;37865;51.304;9.536;2023-07-08T02:05:44;100196.16;;;13.15;97.00
51807;BME280;37865;51.304;9.536;2023-07-08T02:08:10;100190.63;;;13.10;97.19
51807;BME280;37865;51.304;9.536;2023-07-08T02:10:38;100200.75;;;13.09;97.81
51807;BME280;37865;51.304;9.536;2023-07-08T02:13:03;100190.59;;;13.05;97.81
51807;BME280;37865;51.304;9.536;2023-07-08T02:15:29;100197.91;;;12.99;97.93
51807;BME280;37865;51.304;9.536;2023-07-08T02:17:54;100194.59;;;12.97;98.23
51807;BME280;37865;51.304;9.536;2023-07-08T02:20:20;100198.94;;;12.93;98.13
51807;BME280;37865;51.304;9.536;2023-07-08T02:22:45;100194.81;;;12.90;98.57
51807;BME280;37865;51.304;9.536;2023-07-08T02:25:10;100199.16;;;12.86;98.59
51807;BME280;37865;51.304;9.536;2023-07-08T02:27:37;100186.00;;;12.83;98.77
51807;BME280;37865;51.304;9.536;2023-07-08T02:30:03;100196.63;;;12.80;98.98
51807;BME280;37865;51.304;9.536;2023-07-08T02:32:29;100191.09;;;12.75;99.73
51807;BME280;37865;51.304;9.536;2023-07-08T02:34:54;100189.72;;;12.72;99.81
51807;BME280;37865;51.304;9.536;2023-07-08T02:37:20;100186.41;;;12.70;100.00
51807;BME280;37865;51.304;9.536;2023-07-08T02:39:45;100192.16;;;12.69;100.00
51807;BME280;37865;51.304;9.536;2023-07-08T02:42:10;100192.94;;;12.69;100.00
51807;BME280;37865;51.304;9.536;2023-07-08T02:44:35;100198.69;;;12.68;100.00
51807;BME280;37865;51.304;9.536;2023-07-08T02:47:01;100200.84;;;12.66;100.00
51807;BME280;37865;51.304;9.536;2023-07-08T02:49:26;100205.25;;;12.67;100.00
51807;BME280;37865;51.304;9.536;2023-07-08T02:51:51;100202.75;;;12.65;100.00
51807;BME280;37865;51.304;9.536;2023-07-08T02:54:17;100201.38;;;12.63;100.00
51807;BME280;37865;51.304;9.536;2023-07-08T02:56:43;100195.84;;;12.58;100.00
51807;BME280;37865;51.304;9.536;2023-07-08T02:59:08;100211.44;;;12.57;100.00
51807;BME280;37865;51.304;9.536;2023-07-08T03:01:34;100201.25;;;12.53;100.00
51807;BME280;37865;51.304;9.536;2023-07-08T03:04:07;100208.59;;;12.47;100.00
51807;BME280;37865;51.304;9.536;2023-07-08T03:06:34;100203.66;;;12.44;100.00
51807;BME280;37865;51.304;9.536;2023-07-08T03:08:59;100205.81;;;12.42;100.00
51807;BME280;37865;51.304;9.536;2023-07-08T03:11:25;100209.03;;;12.39;100.00
51807;BME280;37865;51.304;9.536;2023-07-08T03:13:50;100205.47;;;12.39;100.00
51807;BME280;37865;51.304;9.536;2023-07-08T03:16:15;100204.41;;;12.40;100.00
51807;BME280;37865;51.304;9.536;2023-07-08T03:18:41;100212.59;;;12.40;100.00
51807;BME280;37865;51.304;9.536;2023-07-08T03:21:17;100207.72;;;12.42;100.00
51807;BME280;37865;51.304;9.536;2023-07-08T03:23:43;100210.44;;;12.42;100.00
51807;BME280;37865;51.304;9.536;2023-07-08T03:26:14;100208.28;;;12.44;100.00
51807;BME280;37865;51.304;9.536;2023-07-08T03:28:40;100216.47;;;12.44;100.00
51807;BME280;37865;51.304;9.536;2023-07-08T03:31:08;100211.31;;;12.47;100.00
51807;BME280;37865;51.304;9.536;2023-07-08T03:33:33;100219.25;;;12.49;100.00
51807;BME280;37865;51.304;9.536;2023-07-08T03:35:59;100219.03;;;12.50;100.00
51807;BME280;37865;51.304;9.536;2023-07-08T03:38:24;100217.94;;;12.51;100.00
51807;BME280;37865;51.304;9.536;2023-07-08T03:40:49;100221.81;;;12.55;100.00
51807;BME280;37865;51.304;9.536;2023-07-08T03:43:15;100226.00;;;12.63;100.00
51807;BME280;37865;51.304;9.536;2023-07-08T03:45:41;100222.25;;;12.69;100.00
51807;BME280;37865;51.304;9.536;2023-07-08T03:48:09;100229.16;;;12.76;100.00
51807;BME280;37865;51.304;9.536;2023-07-08T03:50:35;100229.25;;;12.86;100.00
51807;BME280;37865;51.304;9.536;2023-07-08T03:53:00;100231.50;;;12.94;100.00
51807;BME280;37865;51.304;9.536;2023-07-08T03:55:27;100225.00;;;13.01;100.00
51807;BME280;37865;51.304;9.536;2023-07-08T03:57:53;100223.19;;;13.06;100.00
51807;BME280;37865;51.304;9.536;2023-07-08T04:00:18;100229.25;;;13.13;100.00
51807;BME280;37865;51.304;9.536;2023-07-08T04:02:45;100227.97;;;13.21;100.00
51807;BME280;37865;51.304;9.536;2023-07-08T04:05:18;100232.97;;;13.29;100.00
51807;BME280;37865;51.304;9.536;2023-07-08T04:07:44;100232.75;;;13.35;100.00
51807;BME280;37865;51.304;9.536;2023-07-08T04:10:10;100240.47;;;13.43;100.00
51807;BME280;37865;51.304;9.536;2023-07-08T04:12:36;100249.63;;;13.54;99.78
51807;BME280;37865;51.304;9.536;2023-07-08T04:15:02;100244.47;;;13.62;99.31
51807;BME280;37865;51.304;9.536;2023-07-08T04:17:27;100246.44;;;13.72;98.68
51807;BME280;37865;51.304;9.536;2023-07-08T04:19:53;100250.09;;;13.83;98.15
51807;BME280;37865;51.304;9.536;2023-07-08T04:22:19;100252.88;;;13.93;97.33
51807;BME280;37865;51.304;9.536;2023-07-08T04:24:44;100241.97;;;14.03;96.76
51807;BME280;37865;51.304;9.536;2023-07-08T04:27:14;100248.34;;;14.13;95.64
51807;BME280;37865;51.304;9.536;2023-07-08T04:29:40;100251.13;;;14.23;95.04
51807;BME280;37865;51.304;9.536;2023-07-08T04:32:06;100248.22;;;14.35;94.55
51807;BME280;37865;51.304;9.536;2023-07-08T04:34:32;100247.16;;;14.46;94.45
51807;BME280;37865;51.304;9.536;2023-07-08T04:36:57;100243.91;;;14.59;93.95
51807;BME280;37865;51.304;9.536;2023-07-08T04:39:23;100254.94;;;14.74;92.79
51807;BME280;37865;51.304;9.536;2023-07-08T04:41:48;100252.25;;;14.89;92.06
51807;BME280;37865;51.304;9.536;2023-07-08T04:44:14;100249.50;;;15.04;91.13
51807;BME280;37865;51.304;9.536;2023-07-08T04:46:54;100252.56;;;15.23;89.93
51807;BME280;37865;51.304;9.536;2023-07-08T04:49:21;100249.28;;;15.36;89.56
51807;BME280;37865;51.304;9.536;2023-07-08T04:51:48;100252.06;;;15.51;88.75
51807;BME280;37865;51.304;9.536;2023-07-08T04:54:13;100246.81;;;15.65;87.76
51807;BME280;37865;51.304;9.536;2023-07-08T04:56:43;100241.59;;;15.78;86.76
51807;BME280;37865;51.304;9.536;2023-07-08T04:59:11;100239.63;;;15.94;85.31
51807;BME280;37865;51.304;9.536;2023-07-08T05:01:38;100242.63;;;16.07;84.28
51807;BME280;37865;51.304;9.536;2023-07-08T05:04:04;100243.44;;;16.18;83.11
51807;BME280;37865;51.304;9.536;2023-07-08T05:06:33;100248.06;;;16.28;82.22
51807;BME280;37865;51.304;9.536;2023-07-08T05:08:59;100246.09;;;16.38;81.88
51807;BME280;37865;51.304;9.536;2023-07-08T05:11:24;100239.50;;;16.49;81.38
51807;BME280;37865;51.304;9.536;2023-07-08T05:13:50;100237.22;;;16.61;80.75
51807;BME280;37865;51.304;9.536;2023-07-08T05:16:16;100241.53;;;16.77;79.94
51807;BME280;37865;51.304;9.536;2023-07-08T05:18:41;100234.03;;;16.93;79.07
51807;BME280;37865;51.304;9.536;2023-07-08T05:21:06;100234.72;;;17.09;78.31
51807;BME280;37865;51.304;9.536;2023-07-08T05:23:33;100243.44;;;17.26;77.88
51807;BME280;37865;51.304;9.536;2023-07-08T05:26:02;100241.09;;;17.43;77.08
51807;BME280;37865;51.304;9.536;2023-07-08T05:28:27;100242.34;;;17.60;76.18
51807;BME280;37865;51.304;9.536;2023-07-08T05:30:54;100242.44;;;17.79;75.23
51807;BME280;37865;51.304;9.536;2023-07-08T05:33:21;100237.00;;;17.98;74.22
51807;BME280;37865;51.304;9.536;2023-07-08T05:35:47;100234.63;;;18.15;73.27
51807;BME280;37865;51.304;9.536;2023-07-08T05:38:12;100230.88;;;18.29;72.82
51807;BME280;37865;51.304;9.536;2023-07-08T05:40:37;100236.47;;;18.48;71.62
51807;BME280;37865;51.304;9.536;2023-07-08T05:43:02;100239.31;;;18.62;69.99
51807;BME280;37865;51.304;9.536;2023-07-08T05:45:28;100238.59;;;18.75;68.50
51807;BME280;37865;51.304;9.536;2023-07-08T05:47:53;100234.31;;;18.82;67.41
51807;BME280;37865;51.304;9.536;2023-07-08T05:50:18;100229.25;;;18.89;66.51
51807;BME280;37865;51.304;9.536;2023-07-08T05:52:44;100239.66;;;18.97;65.52
51807;BME280;37865;51.304;9.536;2023-07-08T05:55:09;100230.78;;;19.00;65.65
51807;BME280;37865;51.304;9.536;2023-07-08T05:57:34;100233.97;;;19.07;65.24
51807;BME280;37865;51.304;9.536;2023-07-08T06:00:00;100230.75;;;19.19;65.52
51807;BME280;37865;51.304;9.536;2023-07-08T06:02:25;100225.03;;;19.34;64.97
51807;BME280;37865;51.304;9.536;2023-07-08T06:04:51;100224.16;;;19.52;63.77
51807;BME280;37865;51.304;9.536;2023-07-08T06:07:17;100225.16;;;19.75;62.99
51807;BME280;37865;51.304;9.536;2023-07-08T06:09:42;100221.09;;;19.99;61.81
51807;BME280;37865;51.304;9.536;2023-07-08T06:12:08;100224.81;;;20.22;60.83
51807;BME280;37865;51.304;9.536;2023-07-08T06:14:33;100222.03;;;20.49;60.12
51807;BME280;37865;51.304;9.536;2023-07-08T06:16:59;100224.59;;;20.73;59.08
51807;BME280;37865;51.304;9.536;2023-07-08T06:19:24;100221.75;;;21.00;57.97
51807;BME280;37865;51.304;9.536;2023-07-08T06:21:49;100233.72;;;21.23;57.08
51807;BME280;37865;51.304;9.536;2023-07-08T06:24:15;100232.09;;;21.44;56.31
51807;BME280;37865;51.304;9.536;2023-07-08T06:26:40;100232.72;;;21.63;55.39
51807;BME280;37865;51.304;9.536;2023-07-08T06:29:06;100225.78;;;21.74;54.45
51807;BME280;37865;51.304;9.536;2023-07-08T06:31:31;100222.13;;;21.87;53.31
51807;BME280;37865;51.304;9.536;2023-07-08T06:33:56;100231.22;;;22.10;51.89
51807;BME280;37865;51.304;9.536;2023-07-08T06:36:22;100235.22;;;22.26;51.07
51807;BME280;37865;51.304;9.536;2023-07-08T06:38:48;100237.56;;;22.41;49.78
51807;BME280;37865;51.304;9.536;2023-07-08T06:41:13;100241.72;;;22.61;49.44
51807;BME280;37865;51.304;9.536;2023-07-08T06:43:39;100243.59;;;22.82;49.03
51807;BME280;37865;51.304;9.536;2023-07-08T06:46:04;100232.19;;;23.09;48.27
51807;BME280;37865;51.304;9.536;2023-07-08T06:48:31;100228.91;;;23.33;48.14
51807;BME280;37865;51.304;9.536;2023-07-08T06:50:57;100235.31;;;23.59;48.07
51807;BME280;37865;51.304;9.536;2023-07-08T06:53:22;100230.50;;;23.85;47.28
51807;BME280;37865;51.304;9.536;2023-07-08T06:55:48;100225.03;;;24.06;47.11
51807;BME280;37865;51.304;9.536;2023-07-08T06:58:14;100227.44;;;24.25;46.99
51807;BME280;37865;51.304;9.536;2023-07-08T07:00:43;100222.63;;;24.42;46.29
51807;BME280;37865;51.304;9.536;2023-07-08T07:03:10;100224.53;;;24.50;46.70
51807;BME280;37865;51.304;9.536;2023-07-08T07:05:35;100212.81;;;24.65;45.76
51807;BME280;37865;51.304;9.536;2023-07-08T07:08:00;100220.81;;;24.76;45.37
51807;BME280;37865;51.304;9.536;2023-07-08T07:10:26;100221.91;;;24.83;45.08
51807;BME280;37865;51.304;9.536;2023-07-08T07:12:51;100220.84;;;24.96;44.46
51807;BME280;37865;51.304;9.536;2023-07-08T07:15:16;100229.44;;;25.12;44.05
51807;BME280;37865;51.304;9.536;2023-07-08T07:17:42;100219.22;;;25.16;44.14
51807;BME280;37865;51.304;9.536;2023-07-08T07:20:08;100217.16;;;25.25;44.03
51807;BME280;37865;51.304;9.536;2023-07-08T07:22:34;100211.47;;;25.42;43.69
51807;BME280;37865;51.304;9.536;2023-07-08T07:25:00;100216.66;;;25.64;43.71
51807;BME280;37865;51.304;9.536;2023-07-08T07:27:25;100219.84;;;25.75;42.48
51807;BME280;37865;51.304;9.536;2023-07-08T07:29:51;100218.25;;;25.86;41.86
51807;BME280;37865;51.304;9.536;2023-07-08T07:32:18;100210.34;;;26.00;41.55
51807;BME280;37865;51.304;9.536;2023-07-08T07:34:46;100211.69;;;26.26;41.05
51807;BME280;37865;51.304;9.536;2023-07-08T07:37:13;100206.59;;;26.53;40.44
51807;BME280;37865;51.304;9.536;2023-07-08T07:39:39;100207.06;;;26.79;40.52
51807;BME280;37865;51.304;9.536;2023-07-08T07:42:05;100210.47;;;27.12;40.10
51807;BME280;37865;51.304;9.536;2023-07-08T07:44:30;100212.47;;;27.51;40.50
51807;BME280;37865;51.304;9.536;2023-07-08T07:46:56;100211.91;;;27.73;39.83
51807;BME280;37865;51.304;9.536;2023-07-08T07:49:21;100210.19;;;27.84;38.97
51807;BME280;37865;51.304;9.536;2023-07-08T07:51:47;100207.59;;;27.92;38.87
51807;BME280;37865;51.304;9.536;2023-07-08T07:54:13;100203.03;;;28.15;39.09
51807;BME280;37865;51.304;9.536;2023-07-08T07:56:39;100202.94;;;28.27;38.92
51807;BME280;37865;51.304;9.536;2023-07-08T07:59:04;100198.34;;;28.19;38.54
51807;BME280;37865;51.304;9.536;2023-07-08T08:01:30;100204.50;;;28.09;38.36
51807;BME280;37865;51.304;9.536;2023-07-08T08:03:55;100198.41;;;28.22;38.54
51807;BME280;37865;51.304;9.536;2023-07-08T08:06:20;100194.44;;;28.39;37.96
51807;BME280;37865;51.304;9.536;2023-07-08T08:08:46;100201.13;;;28.50;37.20
51807;BME280;37865;51.304;9.536;2023-07-08T08:11:11;100200.66;;;28.63;36.60
51807;BME280;37865;51.304;9.536;2023-07-08T08:13:37;100203.00;;;28.77;36.68
51807;BME280;37865;51.304;9.536;2023-07-08T08:16:03;100204.41;;;29.02;36.71
51807;BME280;37865;51.304;9.536;2023-07-08T08:18:29;100200.88;;;29.24;36.26
51807;BME280;37865;51.304;9.536;2023-07-08T08:20:54;100203.84;;;29.51;35.69
51807;BME280;37865;51.304;9.536;2023-07-08T08:23:20;100208.34;;;29.55;35.23
51807;BME280;37865;51.304;9.536;2023-07-08T08:25:45;100211.16;;;29.55;35.23
51807;BME280;37865;51.304;9.536;2023-07-08T08:28:10;100209.22;;;29.59;34.82
51807;BME280;37865;51.304;9.536;2023-07-08T08:30:36;100210.69;;;29.72;34.40
51807;BME280;37865;51.304;9.536;2023-07-08T08:33:01;100212.63;;;29.87;34.10
51807;BME280;37865;51.304;9.536;2023-07-08T08:35:27;100217.47;;;30.09;33.54
51807;BME280;37865;51.304;9.536;2023-07-08T08:37:53;100214.91;;;30.24;32.99
51807;BME280;37865;51.304;9.536;2023-07-08T08:40:19;100215.50;;;30.33;32.70
51807;BME280;37865;51.304;9.536;2023-07-08T08:42:51;100220.31;;;30.58;32.78
51807;BME280;37865;51.304;9.536;2023-07-08T08:45:19;100214.28;;;30.82;32.64
51807;BME280;37865;51.304;9.536;2023-07-08T08:47:49;100219.88;;;31.05;31.90
51807;BME280;37865;51.304;9.536;2023-07-08T08:50:30;100222.47;;;31.17;31.08
51807;BME280;37865;51.304;9.536;2023-07-08T08:52:59;100221.03;;;31.30;30.89
51807;BME280;37865;51.304;9.536;2023-07-08T08:55:26;100224.44;;;31.43;30.75
51807;BME280;37865;51.304;9.536;2023-07-08T08:57:59;100220.66;;;31.61;30.83
51807;BME280;37865;51.304;9.536;2023-07-08T09:00:41;100222.53;;;31.87;30.43
51807;BME280;37865;51.304;9.536;2023-07-08T09:03:12;100219.00;;;31.94;30.47
51807;BME280;37865;51.304;9.536;2023-07-08T09:05:41;100218.25;;;31.97;29.52
51807;BME280;37865;51.304;9.536;2023-07-08T09:08:34;100219.72;;;31.87;29.47
51807;BME280;37865;51.304;9.536;2023-07-08T09:11:02;100212.91;;;31.92;30.57
51807;BME280;37865;51.304;9.536;2023-07-08T09:13:37;100215.97;;;31.76;30.45
51807;BME280;37865;51.304;9.536;2023-07-08T09:19:01;100214.56;;;31.93;29.76
51807;BME280;37865;51.304;9.536;2023-07-08T09:21:40;100206.59;;;32.02;30.23
51807;BME280;37865;51.304;9.536;2023-07-08T09:24:17;100206.53;;;31.95;29.19
51807;BME280;37865;51.304;9.536;2023-07-08T09:26:45;100211.66;;;31.86;29.73
51807;BME280;37865;51.304;9.536;2023-07-08T09:29:12;100202.94;;;31.98;29.81
51807;BME280;37865;51.304;9.536;2023-07-08T09:31:39;100198.75;;;32.21;29.80
51807;BME280;37865;51.304;9.536;2023-07-08T09:34:21;100199.50;;;32.18;29.34
51807;BME280;37865;51.304;9.536;2023-07-08T09:36:49;100207.63;;;32.23;28.71
51807;BME280;37865;51.304;9.536;2023-07-08T09:39:17;100206.44;;;32.24;29.06
51807;BME280;37865;51.304;9.536;2023-07-08T09:41:46;100204.88;;;32.30;28.62
51807;BME280;37865;51.304;9.536;2023-07-08T09:44:24;100203.47;;;32.51;28.23
51807;BME280;37865;51.304;9.536;2023-07-08T09:46:52;100202.88;;;32.78;27.91
51807;BME280;37865;51.304;9.536;2023-07-08T09:51:47;100192.28;;;33.30;27.26
51807;BME280;37865;51.304;9.536;2023-07-08T09:54:19;100187.06;;;33.46;27.83
51807;BME280;37865;51.304;9.536;2023-07-08T09:56:52;100192.69;;;33.32;27.69
51807;BME280;37865;51.304;9.536;2023-07-08T09:59:23;100185.84;;;33.40;27.93
51807;BME280;37865;51.304;9.536;2023-07-08T10:01:51;100186.66;;;33.40;27.64
51807;BME280;37865;51.304;9.536;2023-07-08T10:04:18;100187.91;;;33.43;26.51
51807;BME280;37865;51.304;9.536;2023-07-08T10:06:44;100187.50;;;33.48;26.15
51807;BME280;37865;51.304;9.536;2023-07-08T10:09:14;100183.94;;;33.68;26.06
51807;BME280;37865;51.304;9.536;2023-07-08T10:11:48;100186.41;;;33.91;26.05
51807;BME280;37865;51.304;9.536;2023-07-08T10:14:35;100181.22;;;34.03;25.61
51807;BME280;37865;51.304;9.536;2023-07-08T10:17:02;100185.59;;;33.87;22.14
51807;BME280;37865;51.304;9.536;2023-07-08T10:19:28;100179.22;;;34.00;21.72
51807;BME280;37865;51.304;9.536;2023-07-08T10:24:59;100173.13;;;34.06;20.77
51807;BME280;37865;51.304;9.536;2023-07-08T10:27:37;100169.84;;;33.72;20.83
51807;BME280;37865;51.304;9.536;2023-07-08T10:33:22;100164.59;;;33.88;21.61
51807;BME280;37865;51.304;9.536;2023-07-08T10:36:18;100165.00;;;33.90;20.39
51807;BME280;37865;51.304;9.536;2023-07-08T10:41:49;100161.84;;;34.09;20.63
51807;BME280;37865;51.304;9.536;2023-07-08T10:47:33;100159.75;;;33.78;20.85
51807;BME280;37865;51.304;9.536;2023-07-08T10:50:22;100151.25;;;33.92;20.93
51807;BME280;37865;51.304;9.536;2023-07-08T10:55:46;100153.31;;;34.72;19.80
51807;BME280;37865;51.304;9.536;2023-07-08T10:58:40;100148.81;;;34.96;19.79
51807;BME280;37865;51.304;9.536;2023-07-08T11:01:20;100154.03;;;35.12;19.68
51807;BME280;37865;51.304;9.536;2023-07-08T11:04:11;100152.38;;;35.21;19.39
51807;BME280;37865;51.304;9.536;2023-07-08T11:06:56;100153.25;;;34.94;19.81
51807;BME280;37865;51.304;9.536;2023-07-08T11:09:32;100153.75;;;34.57;20.00
51807;BME280;37865;51.304;9.536;2023-07-08T11:12:07;100148.47;;;34.69;20.16
51807;BME280;37865;51.304;9.536;2023-07-08T11:14:46;100152.47;;;34.83;20.12
51807;BME280;37865;51.304;9.536;2023-07-08T11:17:22;100145.09;;;35.20;19.85
51807;BME280;37865;51.304;9.536;2023-07-08T11:19:58;100148.06;;;35.72;19.16
51807;BME280;37865;51.304;9.536;2023-07-08T11:22:26;100144.63;;;36.05;19.20
51807;BME280;37865;51.304;9.536;2023-07-08T11:24:55;100148.75;;;35.93;18.76
51807;BME280;37865;51.304;9.536;2023-07-08T11:27:25;100144.78;;;35.84;18.87
51807;BME280;37865;51.304;9.536;2023-07-08T11:30:02;100138.00;;;35.67;19.32
51807;BME280;37865;51.304;9.536;2023-07-08T11:32:31;100139.50;;;35.86;18.52
51807;BME280;37865;51.304;9.536;2023-07-08T11:34:59;100139.88;;;35.88;18.06
51807;BME280;37865;51.304;9.536;2023-07-08T11:37:26;100137.00;;;35.98;18.18
51807;BME280;37865;51.304;9.536;2023-07-08T11:42:44;100136.63;;;35.89;17.87
51807;BME280;37865;51.304;9.536;2023-07-08T11:45:24;100132.56;;;35.87;17.95
51807;BME280;37865;51.304;9.536;2023-07-08T11:47:51;100122.34;;;36.03;17.84
51807;BME280;37865;51.304;9.536;2023-07-08T11:52:53;100121.91;;;36.05;18.01
51807;BME280;37865;51.304;9.536;2023-07-08T11:55:25;100124.22;;;36.20;17.85
51807;BME280;37865;51.304;9.536;2023-07-08T11:57:54;100113.69;;;36.17;17.99
51807;BME280;37865;51.304;9.536;2023-07-08T12:00:25;100113.59;;;36.31;17.55
51807;BME280;37865;51.304;9.536;2023-07-08T12:02:54;100110.59;;;36.49;17.55
51807;BME280;37865;51.304;9.536;2023-07-08T12:05:30;100116.31;;;35.91;17.44
51807;BME280;37865;51.304;9.536;2023-07-08T12:07:57;100118.63;;;36.10;18.10
51807;BME280;37865;51.304;9.536;2023-07-08T12:10:36;100108.44;;;36.60;18.13
51807;BME280;37865;51.304;9.536;2023-07-08T12:13:09;100107.06;;;37.13;17.60
51807;BME280;37865;51.304;9.536;2023-07-08T12:15:36;100100.59;;;37.69;17.26
51807;BME280;37865;51.304;9.536;2023-07-08T12:20:36;100088.28;;;38.72;17.08
51807;BME280;37865;51.304;9.536;2023-07-08T12:23:02;100102.41;;;39.18;17.04
51807;BME280;37865;51.304;9.536;2023-07-08T12:25:31;100094.75;;;39.51;16.62
51807;BME280;37865;51.304;9.536;2023-07-08T12:27:58;100084.63;;;39.82;16.70
51807;BME280;37865;51.304;9.536;2023-07-08T12:30:24;100071.84;;;39.54;15.93
51807;BME280;37865;51.304;9.536;2023-07-08T12:32:50;100019.13;;;38.87;16.90
51807;BME280;37865;51.304;9.536;2023-07-08T12:35:21;100089.31;;;37.32;17.56
51807;BME280;37865;51.304;9.536;2023-07-08T12:37:47;100092.66;;;36.93;17.81
51807;BME280;37865;51.304;9.536;2023-07-08T12:40:14;100094.94;;;36.71;17.78
51807;BME280;37865;51.304;9.536;2023-07-08T12:42:39;100085.47;;;37.15;18.10
51807;BME280;37865;51.304;9.536;2023-07-08T12:45:13;100083.13;;;37.67;17.28
51807;BME280;37865;51.304;9.536;2023-07-08T12:47:39;100075.03;;;38.15;16.89
51807;BME280;37865;51.304;9.536;2023-07-08T12:50:04;100073.53;;;38.53;16.28
51807;BME280;37865;51.304;9.536;2023-07-08T12:52:30;100073.22;;;38.91;15.99
51807;BME280;37865;51.304;9.536;2023-07-08T12:54:55;100077.88;;;39.01;16.27
51807;BME280;37865;51.304;9.536;2023-07-08T12:57:20;100076.66;;;39.02;16.08
51807;BME280;37865;51.304;9.536;2023-07-08T12:59:46;100075.25;;;39.10;15.95
51807;BME280;37865;51.304;9.536;2023-07-08T13:02:17;100072.06;;;39.44;15.99
51807;BME280;37865;51.304;9.536;2023-07-08T13:04:45;100070.53;;;39.75;15.70
51807;BME280;37865;51.304;9.536;2023-07-08T13:07:38;100070.38;;;40.30;15.87
51807;BME280;37865;51.304;9.536;2023-07-08T13:10:05;100068.19;;;40.50;15.69
51807;BME280;37865;51.304;9.536;2023-07-08T13:12:34;100074.25;;;40.97;14.95
51807;BME280;37865;51.304;9.536;2023-07-08T13:15:01;100065.16;;;41.27;15.04
51807;BME280;37865;51.304;9.536;2023-07-08T13:17:27;100055.22;;;41.57;14.72
51807;BME280;37865;51.304;9.536;2023-07-08T13:19:53;100057.97;;;41.60;14.52
51807;BME280;37865;51.304;9.536;2023-07-08T13:22:21;100053.47;;;40.80;14.97
51807;BME280;37865;51.304;9.536;2023-07-08T13:24:47;100058.69;;;40.41;15.39
51807;BME280;37865;51.304;9.536;2023-07-08T13:27:24;100054.06;;;40.59;14.85